Time;durP1;ratioP1;P1;durP2;ratioP2;P2;SDS_P1;SDS_P2;PMS_P1;PMS_P2;Temp;Humidity;BMP_temperature;BMP_pressure;BME280_temperature;BME280_humidity;BME280_pressure;Samples;Min_cycle;Max_cycle;Signal;HPM_P1;HPM_P2
2022/09/15 00:01:51;;;;;;;;;;;12.60;99.90;;;;;;5073591;28;19908;-64
2022/09/15 00:04:16;;;;;;;;;;;12.60;99.90;;;;;;5073595;28;19915;-63
2022/09/15 00:06:42;;;;;;;;;;;12.60;99.90;;;;;;5073682;28;20439;-63
2022/09/15 00:09:07;;;;;;;;;;;12.70;99.90;;;;;;5073566;28;19923;-64
2022/09/15 00:11:33;;;;;;;;;;;12.70;99.90;;;;;;5073260;28;19928;-64
2022/09/15 00:14:01;;;;;;;;;;;12.70;99.90;;;;;;5073772;28;20282;-64
2022/09/15 00:16:27;;;;;;;;;;;12.70;99.90;;;;;;5073565;28;19908;-63
2022/09/15 00:18:54;;;;;;;;;;;12.70;99.90;;;;;;5073738;28;19909;-63
2022/09/15 00:21:22;;;;;;;;;;;12.70;99.90;;;;;;5073406;28;19908;-64
2022/09/15 00:23:48;;;;;;;;;;;12.70;99.90;;;;;;5073446;28;19908;-63
2022/09/15 00:26:17;;;;;;;;;;;12.70;99.90;;;;;;5073415;28;19914;-63
2022/09/15 00:28:43;;;;;;;;;;;12.70;99.90;;;;;;5073619;28;19912;-63
2022/09/15 00:31:10;;;;;;;;;;;12.80;99.90;;;;;;5073244;28;19919;-64
2022/09/15 00:33:36;;;;;;;;;;;12.70;99.90;;;;;;5073624;28;19915;-64
2022/09/15 00:36:03;;;;;;;;;;;12.80;99.90;;;;;;5073296;28;20364;-64
2022/09/15 00:38:29;;;;;;;;;;;12.80;99.90;;;;;;5073241;28;19916;-64
2022/09/15 00:40:56;;;;;;;;;;;12.80;99.90;;;;;;5073546;28;19909;-64
2022/09/15 00:43:40;;;;;;;;;;;12.80;99.90;;;;;;5073252;28;19943;-63
2022/09/15 00:46:06;;;;;;;;;;;12.80;99.90;;;;;;5073236;28;19909;-64
2022/09/15 00:48:32;;;;;;;;;;;12.80;99.90;;;;;;5073447;28;19916;-63
2022/09/15 00:50:59;;;;;;;;;;;12.90;99.90;;;;;;5073294;28;20286;-63
2022/09/15 00:53:25;;;;;;;;;;;12.80;99.90;;;;;;5073111;28;19909;-64
2022/09/15 00:55:50;;;;;;;;;;;12.80;99.90;;;;;;5073361;28;20378;-63
2022/09/15 00:58:36;;;;;;;;;;;12.80;99.90;;;;;;5073331;28;19958;-63
2022/09/15 01:01:02;;;;;;;;;;;12.90;99.90;;;;;;5072951;28;20436;-63
2022/09/15 01:03:30;;;;;;;;;;;12.80;99.90;;;;;;5073287;28;20397;-64
2022/09/15 01:05:59;;;;;;;;;;;12.80;99.90;;;;;;5073303;28;20003;-63
2022/09/15 01:08:31;;;;;;;;;;;12.70;99.90;;;;;;5073279;28;20363;-63
2022/09/15 01:10:58;;;;;;;;;;;12.60;99.90;;;;;;5072719;28;20007;-63
2022/09/15 01:13:24;;;;;;;;;;;12.60;99.90;;;;;;5073189;28;19930;-63
2022/09/15 01:15:56;;;;;;;;;;;12.50;99.90;;;;;;5072921;28;19909;-63
2022/09/15 01:18:33;;;;;;;;;;;12.50;99.90;;;;;;5074624;28;19908;-64
2022/09/15 01:21:09;;;;;;;;;;;12.40;99.90;;;;;;5076736;28;20325;-63
2022/09/15 01:23:55;;;;;;;;;;;12.30;99.90;;;;;;5076419;28;20371;-63
2022/09/15 01:26:41;;;;;;;;;;;12.30;99.90;;;;;;5076307;28;19959;-63
2022/09/15 01:29:26;;;;;;;;;;;12.30;99.90;;;;;;5058417;28;20441;-64
2022/09/15 01:34:48;;;;;;;;;;;12.20;99.90;;;;;;5061106;28;19909;-64
2022/09/15 01:37:16;;;;;;;;;;;12.10;99.90;;;;;;5076279;28;19954;-64
2022/09/15 01:39:43;;;;;;;;;;;12.00;99.90;;;;;;5076128;28;19926;-64
2022/09/15 01:42:10;;;;;;;;;;;12.00;99.90;;;;;;5076395;28;20371;-63
2022/09/15 01:44:37;;;;;;;;;;;11.90;99.90;;;;;;5076101;28;19912;-63
2022/09/15 01:47:06;;;;;;;;;;;11.90;99.90;;;;;;5075981;28;19915;-63
2022/09/15 01:49:37;;;;;;;;;;;11.80;99.90;;;;;;5076235;28;19999;-63
2022/09/15 01:52:02;;;;;;;;;;;11.70;99.90;;;;;;5076116;28;19962;-63
2022/09/15 01:54:31;;;;;;;;;;;11.70;99.90;;;;;;5075866;28;19909;-63
2022/09/15 01:56:57;;;;;;;;;;;11.60;99.90;;;;;;5076014;28;19909;-63
2022/09/15 01:59:22;;;;;;;;;;;11.50;99.90;;;;;;5075767;28;19915;-63
2022/09/15 02:01:53;;;;;;;;;;;11.60;99.90;;;;;;5076010;28;19915;-63
2022/09/15 02:04:28;;;;;;;;;;;11.50;99.90;;;;;;5057834;28;19930;-63
2022/09/15 02:06:57;;;;;;;;;;;11.50;99.90;;;;;;5075699;28;19916;-63
2022/09/15 02:09:25;;;;;;;;;;;11.40;99.90;;;;;;5075625;28;19908;-63
2022/09/15 02:11:57;;;;;;;;;;;11.40;99.90;;;;;;5075339;28;20032;-63
2022/09/15 02:14:35;;;;;;;;;;;11.40;99.90;;;;;;5075520;28;19908;-64
2022/09/15 02:17:01;;;;;;;;;;;11.40;99.90;;;;;;5075737;28;19912;-63
2022/09/15 02:19:30;;;;;;;;;;;11.30;99.90;;;;;;5075386;28;19915;-64
2022/09/15 02:22:02;;;;;;;;;;;11.30;99.90;;;;;;5075639;28;19908;-64
2022/09/15 02:24:29;;;;;;;;;;;11.20;99.90;;;;;;5075589;28;19908;-64
2022/09/15 02:26:56;;;;;;;;;;;11.20;99.90;;;;;;5075533;28;19966;-64
2022/09/15 02:29:23;;;;;;;;;;;11.20;99.90;;;;;;5075196;28;19908;-63
2022/09/15 02:31:51;;;;;;;;;;;11.20;99.90;;;;;;5057258;28;19916;-64
2022/09/15 02:34:25;;;;;;;;;;;11.20;99.90;;;;;;5075373;28;20325;-64
2022/09/15 02:36:52;;;;;;;;;;;11.30;99.90;;;;;;5057544;28;19908;-64
2022/09/15 02:39:19;;;;;;;;;;;11.30;99.90;;;;;;5075284;28;19909;-63
2022/09/15 02:41:44;;;;;;;;;;;11.50;99.90;;;;;;5075251;28;20346;-64
2022/09/15 02:44:10;;;;;;;;;;;11.50;99.90;;;;;;5074931;28;19951;-64
2022/09/15 02:46:37;;;;;;;;;;;11.70;99.90;;;;;;5075109;28;19909;-64
2022/09/15 02:49:02;;;;;;;;;;;11.70;99.90;;;;;;5075030;28;19999;-65
2022/09/15 02:51:28;;;;;;;;;;;11.70;99.90;;;;;;5074948;28;19999;-64
2022/09/15 02:53:53;;;;;;;;;;;11.70;99.90;;;;;;5057121;28;20042;-64
2022/09/15 02:56:19;;;;;;;;;;;11.70;99.90;;;;;;5074937;28;19959;-64
2022/09/15 02:58:45;;;;;;;;;;;11.70;99.90;;;;;;5074907;28;20358;-65
2022/09/15 03:01:14;;;;;;;;;;;11.80;99.90;;;;;;5074610;28;19908;-65
2022/09/15 03:03:40;;;;;;;;;;;11.80;99.90;;;;;;5074925;28;20477;-64
2022/09/15 03:06:21;;;;;;;;;;;11.80;99.90;;;;;;5074489;28;20007;-64
2022/09/15 03:08:55;;;;;;;;;;;11.80;99.90;;;;;;5074684;28;19916;-64
2022/09/15 03:11:22;;;;;;;;;;;11.80;99.90;;;;;;5074180;28;19924;-65
2022/09/15 03:13:47;;;;;;;;;;;11.80;99.90;;;;;;5074620;28;20382;-64
2022/09/15 03:16:15;;;;;;;;;;;11.90;99.90;;;;;;5074540;28;19912;-64
2022/09/15 03:18:40;;;;;;;;;;;12.00;99.90;;;;;;5074519;28;20263;-64
2022/09/15 03:21:08;;;;;;;;;;;12.10;99.90;;;;;;5074208;28;19958;-64
2022/09/15 03:23:33;;;;;;;;;;;12.10;99.90;;;;;;5074407;28;20011;-64
2022/09/15 03:25:59;;;;;;;;;;;12.20;99.90;;;;;;5074117;28;19955;-65
2022/09/15 03:28:25;;;;;;;;;;;12.20;99.90;;;;;;5074353;28;19916;-65
2022/09/15 03:30:51;;;;;;;;;;;12.20;99.90;;;;;;5073965;28;19912;-65
2022/09/15 03:33:17;;;;;;;;;;;12.20;99.90;;;;;;5074237;28;20367;-65
2022/09/15 03:35:44;;;;;;;;;;;12.20;99.90;;;;;;5074212;28;19915;-66
2022/09/15 03:38:10;;;;;;;;;;;12.30;99.90;;;;;;5073997;28;20177;-64
2022/09/15 03:40:36;;;;;;;;;;;12.20;99.90;;;;;;5055618;28;20427;-65
2022/09/15 03:43:02;;;;;;;;;;;12.30;99.90;;;;;;5074093;28;19931;-65
2022/09/15 03:45:27;;;;;;;;;;;12.30;99.90;;;;;;5074089;28;19909;-64
2022/09/15 03:47:53;;;;;;;;;;;12.30;99.90;;;;;;5073807;28;19908;-65
2022/09/15 03:50:18;;;;;;;;;;;12.30;99.90;;;;;;5073680;28;20386;-65
2022/09/15 03:52:44;;;;;;;;;;;12.30;99.90;;;;;;5074011;28;19913;-64
2022/09/15 03:55:09;;;;;;;;;;;12.30;99.90;;;;;;5074011;28;19912;-64
2022/09/15 03:57:35;;;;;;;;;;;12.40;99.90;;;;;;5073930;28;20003;-64
2022/09/15 04:00:01;;;;;;;;;;;12.40;99.90;;;;;;5073707;28;20392;-64
2022/09/15 04:02:26;;;;;;;;;;;12.40;99.90;;;;;;5073898;28;19909;-64
2022/09/15 04:04:52;;;;;;;;;;;12.40;99.90;;;;;;5073651;28;19908;-65
2022/09/15 04:07:17;;;;;;;;;;;12.40;99.90;;;;;;5073878;28;20341;-64
2022/09/15 04:09:42;;;;;;;;;;;12.40;99.90;;;;;;5073614;28;19916;-64
2022/09/15 04:12:09;;;;;;;;;;;12.40;99.90;;;;;;5073513;28;20016;-64
2022/09/15 04:14:35;;;;;;;;;;;12.50;99.90;;;;;;5073797;28;20046;-64
2022/09/15 04:17:00;;;;;;;;;;;12.40;99.90;;;;;;5073499;28;19973;-64
2022/09/15 04:19:26;;;;;;;;;;;12.40;99.90;;;;;;5073420;28;19915;-64
2022/09/15 04:21:52;;;;;;;;;;;12.40;99.90;;;;;;5073710;28;19908;-64
2022/09/15 04:24:17;;;;;;;;;;;12.50;99.90;;;;;;5073681;28;19908;-64
2022/09/15 04:26:44;;;;;;;;;;;12.50;99.90;;;;;;5073687;28;19912;-64
2022/09/15 04:29:12;;;;;;;;;;;12.50;99.90;;;;;;5073681;28;19915;-65
2022/09/15 04:31:37;;;;;;;;;;;12.50;99.90;;;;;;5073522;28;19912;-64
2022/09/15 04:34:03;;;;;;;;;;;12.50;99.90;;;;;;5073611;28;20321;-64
2022/09/15 04:36:28;;;;;;;;;;;12.50;99.90;;;;;;5055702;28;19916;-65
2022/09/15 04:38:55;;;;;;;;;;;12.50;99.90;;;;;;5073563;28;19909;-64
2022/09/15 04:41:20;;;;;;;;;;;12.50;99.90;;;;;;5073234;28;19969;-64
2022/09/15 04:43:46;;;;;;;;;;;12.50;99.90;;;;;;5073528;28;19999;-64
2022/09/15 04:46:12;;;;;;;;;;;12.60;99.90;;;;;;5073493;28;19915;-65
2022/09/15 04:48:38;;;;;;;;;;;12.60;99.90;;;;;;5073440;28;19931;-65
2022/09/15 04:51:05;;;;;;;;;;;12.60;99.90;;;;;;5073379;28;19912;-65
2022/09/15 04:53:30;;;;;;;;;;;12.60;99.90;;;;;;5056953;28;19919;-65
2022/09/15 04:56:12;;;;;;;;;;;12.60;99.90;;;;;;5077242;28;19908;-64
2022/09/15 04:58:42;;;;;;;;;;;12.70;99.90;;;;;;5076911;28;19909;-64
2022/09/15 05:01:10;;;;;;;;;;;12.70;99.90;;;;;;5076861;28;20007;-64
2022/09/15 05:03:36;;;;;;;;;;;12.70;99.90;;;;;;5076806;28;19915;-64
2022/09/15 05:06:03;;;;;;;;;;;12.60;99.90;;;;;;5077058;28;19908;-64
2022/09/15 05:08:28;;;;;;;;;;;12.60;99.90;;;;;;5076994;28;20402;-64
2022/09/15 05:11:03;;;;;;;;;;;12.70;99.90;;;;;;5076504;28;19964;-64
2022/09/15 05:13:28;;;;;;;;;;;12.60;99.90;;;;;;5076667;28;19963;-64
2022/09/15 05:15:54;;;;;;;;;;;12.60;99.90;;;;;;5076613;28;20371;-64
2022/09/15 05:18:19;;;;;;;;;;;12.60;99.90;;;;;;5058707;28;19912;-64
2022/09/15 05:20:45;;;;;;;;;;;12.60;99.90;;;;;;5076744;28;20054;-64
2022/09/15 05:23:11;;;;;;;;;;;12.60;99.90;;;;;;5076746;28;19908;-64
2022/09/15 05:25:37;;;;;;;;;;;12.70;99.90;;;;;;5076432;28;19962;-64
2022/09/15 05:28:03;;;;;;;;;;;12.70;99.90;;;;;;5076326;28;19956;-64
2022/09/15 05:30:29;;;;;;;;;;;12.70;99.90;;;;;;5076535;28;19916;-65
2022/09/15 05:32:55;;;;;;;;;;;12.70;99.90;;;;;;5076301;28;19908;-64
2022/09/15 05:35:22;;;;;;;;;;;12.70;99.90;;;;;;5076488;28;19912;-65
2022/09/15 05:37:48;;;;;;;;;;;12.80;99.90;;;;;;5076441;28;20003;-64
2022/09/15 05:40:14;;;;;;;;;;;12.80;99.90;;;;;;5076400;28;19939;-64
2022/09/15 05:42:39;;;;;;;;;;;12.80;99.90;;;;;;5076714;28;20224;-65
2022/09/15 05:45:05;;;;;;;;;;;12.90;99.90;;;;;;5076359;28;19915;-64
2022/09/15 05:47:30;;;;;;;;;;;12.90;99.90;;;;;;5076059;28;20347;-64
2022/09/15 05:49:56;;;;;;;;;;;13.00;99.90;;;;;;5076038;28;19931;-64
2022/09/15 05:52:21;;;;;;;;;;;13.00;99.90;;;;;;5075855;28;19912;-64
2022/09/15 05:54:47;;;;;;;;;;;13.00;99.90;;;;;;5075898;28;19916;-64
2022/09/15 05:57:13;;;;;;;;;;;13.10;99.90;;;;;;5076139;28;19908;-64
2022/09/15 05:59:40;;;;;;;;;;;13.20;99.90;;;;;;5075621;28;20088;-64
2022/09/15 06:02:07;;;;;;;;;;;13.20;99.90;;;;;;5076014;28;19908;-64
2022/09/15 06:04:33;;;;;;;;;;;13.30;99.90;;;;;;5074043;28;19908;-66
2022/09/15 06:06:59;;;;;;;;;;;13.30;99.90;;;;;;5072226;28;20359;-64
2022/09/15 06:09:24;;;;;;;;;;;13.30;99.90;;;;;;5075445;28;20375;-64
2022/09/15 06:11:51;;;;;;;;;;;13.40;99.90;;;;;;5075151;28;19928;-64
2022/09/15 06:14:16;;;;;;;;;;;13.40;99.90;;;;;;5074048;28;19914;-64
2022/09/15 06:16:41;;;;;;;;;;;13.40;99.90;;;;;;5055205;28;19995;-63
2022/09/15 06:19:07;;;;;;;;;;;13.40;99.90;;;;;;5055224;28;19915;-64
2022/09/15 06:21:33;;;;;;;;;;;13.50;99.90;;;;;;5054948;28;19917;-64
2022/09/15 06:23:59;;;;;;;;;;;13.50;99.90;;;;;;5055354;28;19940;-64
2022/09/15 06:26:25;;;;;;;;;;;13.50;99.90;;;;;;5054779;28;19920;-64
2022/09/15 06:28:52;;;;;;;;;;;13.60;99.90;;;;;;5055123;28;19912;-64
2022/09/15 06:31:18;;;;;;;;;;;13.60;99.90;;;;;;5054950;28;20389;-64
2022/09/15 06:33:44;;;;;;;;;;;13.60;99.90;;;;;;5055215;28;19909;-65
2022/09/15 06:36:10;;;;;;;;;;;13.70;99.90;;;;;;5054802;28;19965;-64
2022/09/15 06:38:37;;;;;;;;;;;13.70;99.90;;;;;;5054442;28;20367;-64
2022/09/15 06:41:02;;;;;;;;;;;13.80;99.90;;;;;;5054613;28;20283;-64
2022/09/15 06:43:29;;;;;;;;;;;13.80;99.90;;;;;;5053901;28;19921;-64
2022/09/15 06:46:00;;;;;;;;;;;13.90;99.90;;;;;;5053809;28;20288;-64
2022/09/15 06:48:26;;;;;;;;;;;14.00;99.90;;;;;;5054645;28;19966;-64
2022/09/15 06:50:52;;;;;;;;;;;13.90;99.90;;;;;;5054267;28;19920;-64
2022/09/15 06:53:17;;;;;;;;;;;14.00;99.90;;;;;;5054458;28;19955;-64
2022/09/15 06:55:43;;;;;;;;;;;14.10;99.90;;;;;;5039412;28;20321;-66
2022/09/15 06:58:08;;;;;;;;;;;14.20;99.90;;;;;;5054296;28;20257;-64
2022/09/15 07:00:34;;;;;;;;;;;14.20;99.90;;;;;;5054186;28;19936;-65
2022/09/15 07:02:59;;;;;;;;;;;14.20;99.90;;;;;;5054212;28;19908;-65
2022/09/15 07:05:25;;;;;;;;;;;14.30;99.90;;;;;;5053325;28;19912;-65
2022/09/15 07:07:50;;;;;;;;;;;14.40;99.90;;;;;;5054275;28;19913;-65
2022/09/15 07:10:16;;;;;;;;;;;14.40;99.90;;;;;;5053778;28;19928;-65
2022/09/15 07:12:41;;;;;;;;;;;14.50;99.90;;;;;;5054380;28;19909;-65
2022/09/15 07:15:07;;;;;;;;;;;14.50;99.90;;;;;;5053380;28;19913;-65
2022/09/15 07:17:33;;;;;;;;;;;14.50;99.90;;;;;;5053358;28;19913;-65
2022/09/15 07:19:59;;;;;;;;;;;14.60;99.90;;;;;;5053889;28;20090;-65
2022/09/15 07:22:24;;;;;;;;;;;14.60;99.90;;;;;;5053675;28;19919;-65
2022/09/15 07:24:50;;;;;;;;;;;14.60;99.90;;;;;;5053941;28;19999;-65
2022/09/15 07:27:15;;;;;;;;;;;14.50;99.90;;;;;;5053409;28;19959;-65
2022/09/15 07:29:41;;;;;;;;;;;14.50;99.90;;;;;;5048142;28;19917;-65
2022/09/15 07:32:06;;;;;;;;;;;14.50;99.90;;;;;;5053084;28;20399;-64
2022/09/15 07:34:32;;;;;;;;;;;14.70;99.90;;;;;;5048995;28;19921;-66
2022/09/15 07:36:57;;;;;;;;;;;14.70;99.90;;;;;;5046270;28;19942;-64
2022/09/15 07:39:22;;;;;;;;;;;14.80;99.90;;;;;;5047901;28;19949;-64
2022/09/15 07:41:48;;;;;;;;;;;15.00;99.90;;;;;;5050862;28;19913;-64
2022/09/15 07:44:13;;;;;;;;;;;15.10;99.90;;;;;;5053529;28;19909;-65
2022/09/15 07:46:39;;;;;;;;;;;15.20;99.90;;;;;;5052186;28;20379;-64
2022/09/15 07:49:05;;;;;;;;;;;15.30;99.90;;;;;;5042817;28;19920;-64
2022/09/15 07:51:31;;;;;;;;;;;15.30;99.90;;;;;;5052667;28;20116;-65
2022/09/15 07:53:56;;;;;;;;;;;15.20;99.90;;;;;;5050335;28;20412;-64
2022/09/15 07:56:23;;;;;;;;;;;15.20;99.90;;;;;;5051461;28;19919;-64
2022/09/15 07:58:49;;;;;;;;;;;15.20;99.90;;;;;;5052063;28;19999;-64
2022/09/15 08:01:16;;;;;;;;;;;15.20;99.90;;;;;;5052819;28;19953;-63
2022/09/15 08:03:45;;;;;;;;;;;15.20;99.90;;;;;;5053393;28;19909;-64
2022/09/15 08:06:11;;;;;;;;;;;15.20;99.90;;;;;;5053018;28;19917;-63
2022/09/15 08:08:38;;;;;;;;;;;15.20;99.90;;;;;;5054866;28;20288;-63
2022/09/15 08:11:07;;;;;;;;;;;15.40;99.90;;;;;;5051139;28;19921;-63
2022/09/15 08:13:33;;;;;;;;;;;15.50;99.90;;;;;;5050327;28;19935;-63
2022/09/15 08:16:07;;;;;;;;;;;15.50;99.90;;;;;;5047752;28;19968;-63
2022/09/15 08:18:33;;;;;;;;;;;15.60;99.90;;;;;;5063046;28;19958;-63
2022/09/15 08:21:02;;;;;;;;;;;15.60;99.90;;;;;;5040612;28;19916;-63
2022/09/15 08:23:27;;;;;;;;;;;15.80;99.90;;;;;;5052652;28;19913;-63
2022/09/15 08:25:53;;;;;;;;;;;15.80;99.90;;;;;;5052756;28;20397;-63
2022/09/15 08:28:18;;;;;;;;;;;15.60;99.90;;;;;;5056219;28;19920;-63
2022/09/15 08:30:44;;;;;;;;;;;15.70;99.90;;;;;;5057454;28;19920;-64
2022/09/15 08:33:09;;;;;;;;;;;15.80;99.90;;;;;;5057069;28;19939;-63
2022/09/15 08:35:35;;;;;;;;;;;16.00;99.90;;;;;;5056304;28;20370;-64
2022/09/15 08:38:01;;;;;;;;;;;16.10;99.90;;;;;;5057313;28;20373;-64
2022/09/15 08:40:29;;;;;;;;;;;16.30;99.90;;;;;;5055893;28;19944;-63
2022/09/15 08:42:58;;;;;;;;;;;16.40;99.90;;;;;;5056864;28;19936;-63
2022/09/15 08:45:24;;;;;;;;;;;16.40;99.90;;;;;;5056579;28;19908;-64
2022/09/15 08:47:54;;;;;;;;;;;16.50;99.90;;;;;;5055792;28;19974;-64
2022/09/15 08:50:26;;;;;;;;;;;16.60;99.90;;;;;;5056924;28;20004;-63
2022/09/15 08:52:58;;;;;;;;;;;16.70;99.90;;;;;;5056350;28;19919;-65
2022/09/15 08:55:43;;;;;;;;;;;16.70;99.90;;;;;;5055387;28;19909;-63
2022/09/15 08:58:12;;;;;;;;;;;16.80;99.90;;;;;;5056752;28;19908;-63
2022/09/15 09:00:38;;;;;;;;;;;17.00;99.90;;;;;;5055940;28;20402;-63
2022/09/15 09:03:24;;;;;;;;;;;17.00;99.90;;;;;;5046198;28;20038;-64
2022/09/15 09:05:54;;;;;;;;;;;16.80;99.90;;;;;;5055582;28;20319;-63
2022/09/15 09:08:29;;;;;;;;;;;17.00;99.90;;;;;;5056781;28;20375;-64
2022/09/15 09:11:02;;;;;;;;;;;17.10;99.90;;;;;;5055640;28;19970;-64
2022/09/15 09:13:35;;;;;;;;;;;17.40;99.90;;;;;;5051123;28;20054;-64
2022/09/15 09:16:21;;;;;;;;;;;17.50;99.90;;;;;;5056279;28;19917;-64
2022/09/15 09:19:07;;;;;;;;;;;17.40;99.90;;;;;;5056304;28;19913;-64
2022/09/15 09:21:38;;;;;;;;;;;17.20;99.90;;;;;;5056276;28;19916;-65
2022/09/15 09:24:05;;;;;;;;;;;17.40;99.90;;;;;;5055782;28;19920;-64
2022/09/15 09:26:33;;;;;;;;;;;17.10;99.90;;;;;;5055753;28;19985;-64
2022/09/15 09:29:00;;;;;;;;;;;17.10;99.90;;;;;;5056946;28;20393;-65
2022/09/15 09:31:26;;;;;;;;;;;17.20;99.90;;;;;;5052205;28;19924;-63
2022/09/15 09:33:57;;;;;;;;;;;17.20;99.90;;;;;;5053108;28;19944;-64
2022/09/15 09:36:23;;;;;;;;;;;17.00;99.90;;;;;;5054695;28;19920;-64
2022/09/15 09:38:49;;;;;;;;;;;16.90;99.90;;;;;;5052798;28;19917;-64
2022/09/15 09:41:17;;;;;;;;;;;17.10;99.90;;;;;;5053371;28;19995;-65
2022/09/15 09:43:45;;;;;;;;;;;17.30;99.90;;;;;;5053099;28;19999;-65
2022/09/15 09:46:13;;;;;;;;;;;17.60;99.90;;;;;;5047616;28;19971;-64
2022/09/15 09:48:42;;;;;;;;;;;17.50;99.90;;;;;;5048716;28;19921;-65
2022/09/15 09:51:27;;;;;;;;;;;17.30;99.90;;;;;;5043452;28;19917;-64
2022/09/15 09:53:53;;;;;;;;;;;17.20;99.90;;;;;;5054902;28;20007;-64
2022/09/15 09:56:23;;;;;;;;;;;17.30;99.90;;;;;;5046211;28;19999;-64
2022/09/15 09:58:48;;;;;;;;;;;17.40;99.90;;;;;;5055075;28;19919;-64
2022/09/15 10:01:17;;;;;;;;;;;17.70;99.90;;;;;;5055457;28;19913;-64
2022/09/15 10:03:44;;;;;;;;;;;17.90;99.90;;;;;;5055140;28;19913;-64
2022/09/15 10:06:14;;;;;;;;;;;18.00;99.90;;;;;;5055360;28;19916;-64
2022/09/15 10:08:57;;;;;;;;;;;18.10;99.90;;;;;;5051301;28;20122;-64
2022/09/15 10:11:39;;;;;;;;;;;18.00;99.90;;;;;;5049608;28;19920;-64
2022/09/15 10:14:04;;;;;;;;;;;18.80;99.90;;;;;;5039471;28;19935;-64
2022/09/15 10:16:31;;;;;;;;;;;19.60;99.90;;;;;;5054721;28;19929;-64
2022/09/15 10:18:56;;;;;;;;;;;19.70;99.90;;;;;;5055098;28;19955;-64
2022/09/15 10:21:23;;;;;;;;;;;19.60;99.90;;;;;;5051718;28;19916;-64
2022/09/15 10:23:48;;;;;;;;;;;19.30;99.90;;;;;;5046378;28;19909;-63
2022/09/15 10:26:16;;;;;;;;;;;19.10;99.90;;;;;;5053783;28;19958;-64
2022/09/15 10:28:43;;;;;;;;;;;18.90;99.90;;;;;;5053801;28;19920;-63
2022/09/15 10:31:12;;;;;;;;;;;18.60;99.90;;;;;;5053049;28;19916;-64
2022/09/15 10:33:39;;;;;;;;;;;18.20;99.90;;;;;;5048926;28;19952;-64
2022/09/15 10:36:09;;;;;;;;;;;18.40;99.90;;;;;;5028144;28;19964;-64
2022/09/15 10:41:21;;;;;;;;;;;18.20;99.90;;;;;;5090305;27;19923;-63
2022/09/15 10:43:54;;;;;;;;;;;17.70;99.90;;;;;;5087934;28;19913;-63
2022/09/15 10:46:24;;;;;;;;;;;17.90;99.90;;;;;;5079918;28;19909;-63
2022/09/15 10:49:10;;;;;;;;;;;18.00;99.90;;;;;;5076544;28;19908;-63
2022/09/15 10:51:55;;;;;;;;;;;18.00;99.90;;;;;;5084615;28;19912;-63
2022/09/15 10:54:40;;;;;;;;;;;17.80;99.90;;;;;;5087166;28;19948;-63
2022/09/15 10:57:13;;;;;;;;;;;17.70;99.90;;;;;;5087675;28;19921;-63
2022/09/15 10:59:59;;;;;;;;;;;17.50;99.90;;;;;;5086592;28;19920;-63
2022/09/15 11:02:44;;;;;;;;;;;17.40;99.90;;;;;;5090537;28;19948;-63
2022/09/15 11:05:30;;;;;;;;;;;17.40;99.90;;;;;;5090001;28;19915;-64
2022/09/15 11:08:10;;;;;;;;;;;17.30;99.90;;;;;;5090464;28;19934;-63
2022/09/15 11:10:44;;;;;;;;;;;17.20;99.90;;;;;;5090278;28;20362;-63
2022/09/15 11:13:16;;;;;;;;;;;17.20;99.90;;;;;;5090636;28;20363;-63
2022/09/15 11:16:02;;;;;;;;;;;17.00;99.90;;;;;;5084528;28;19920;-63
2022/09/15 11:18:35;;;;;;;;;;;17.10;99.90;;;;;;5076015;28;19922;-63
2022/09/15 11:21:21;;;;;;;;;;;17.40;99.90;;;;;;5087419;28;19961;-63
2022/09/15 11:24:06;;;;;;;;;;;17.60;99.90;;;;;;5088725;28;19913;-63
2022/09/15 11:26:37;;;;;;;;;;;17.80;99.90;;;;;;5089911;28;19912;-63
2022/09/15 11:29:13;;;;;;;;;;;17.60;99.90;;;;;;5089232;28;20298;-63
2022/09/15 11:31:41;;;;;;;;;;;17.80;99.90;;;;;;5089829;28;20379;-63
2022/09/15 11:34:14;;;;;;;;;;;18.00;99.90;;;;;;5089912;28;20298;-62
2022/09/15 11:36:43;;;;;;;;;;;17.90;99.90;;;;;;5090015;28;19912;-62
2022/09/15 11:39:18;;;;;;;;;;;18.00;99.90;;;;;;5091940;28;20799;-64
2022/09/15 11:41:48;;;;;;;;;;;18.30;99.90;;;;;;5109550;28;20378;-63
2022/09/15 11:44:30;;;;;;;;;;;18.70;99.90;;;;;;5092036;28;19915;-64
2022/09/15 11:47:01;;;;;;;;;;;18.60;99.90;;;;;;5103298;28;19918;-63
2022/09/15 11:49:33;;;;;;;;;;;18.70;99.90;;;;;;5109083;28;19916;-63
2022/09/15 11:52:03;;;;;;;;;;;18.90;99.90;;;;;;5088493;28;19935;-63
2022/09/15 11:54:33;;;;;;;;;;;19.10;99.90;;;;;;5091225;28;20502;-63
2022/09/15 11:56:59;;;;;;;;;;;19.30;99.90;;;;;;5095965;28;19916;-63
2022/09/15 11:59:44;;;;;;;;;;;18.90;99.90;;;;;;5083678;28;19938;-63
2022/09/15 12:02:30;;;;;;;;;;;18.70;99.90;;;;;;5093848;28;20007;-63
2022/09/15 12:05:02;;;;;;;;;;;18.70;99.90;;;;;;5094483;28;19912;-63
2022/09/15 12:07:31;;;;;;;;;;;18.80;99.90;;;;;;5095238;28;19908;-63
2022/09/15 12:10:03;;;;;;;;;;;18.80;99.90;;;;;;5094709;28;20003;-64
2022/09/15 12:12:28;;;;;;;;;;;18.80;99.90;;;;;;5083225;28;19939;-64
2022/09/15 12:14:56;;;;;;;;;;;19.10;99.90;;;;;;5096168;28;19920;-63
2022/09/15 12:17:32;;;;;;;;;;;18.90;99.90;;;;;;5094748;28;19916;-63
2022/09/15 12:20:10;;;;;;;;;;;18.80;99.90;;;;;;5090310;28;20366;-64
2022/09/15 12:22:40;;;;;;;;;;;19.10;99.90;;;;;;5095266;28;19908;-63
2022/09/15 12:25:25;;;;;;;;;;;18.60;99.90;;;;;;5094265;28;19919;-63
2022/09/15 12:28:10;;;;;;;;;;;18.10;99.90;;;;;;5101062;28;19919;-65
2022/09/15 12:30:37;;;;;;;;;;;18.10;99.90;;;;;;5088315;28;19916;-63
2022/09/15 12:33:23;;;;;;;;;;;17.90;99.90;;;;;;5089884;28;19912;-62
2022/09/15 12:35:48;;;;;;;;;;;17.80;99.90;;;;;;5090357;28;19912;-63
2022/09/15 12:38:14;;;;;;;;;;;17.60;99.90;;;;;;5095100;28;20026;-63
2022/09/15 12:40:40;;;;;;;;;;;17.40;99.90;;;;;;5094304;28;19927;-63
2022/09/15 12:43:22;;;;;;;;;;;17.10;99.90;;;;;;5094773;28;19912;-65
2022/09/15 12:45:57;;;;;;;;;;;16.90;99.90;;;;;;5094516;28;19912;-63
2022/09/15 12:48:25;;;;;;;;;;;16.70;99.90;;;;;;5094782;28;19912;-64
2022/09/15 12:50:55;;;;;;;;;;;16.60;99.90;;;;;;5095032;28;20370;-64
2022/09/15 12:53:24;;;;;;;;;;;16.50;99.90;;;;;;5093872;28;19912;-63
2022/09/15 12:55:54;;;;;;;;;;;16.50;99.90;;;;;;5094921;28;19931;-63
2022/09/15 12:58:24;;;;;;;;;;;16.50;99.90;;;;;;5094464;28;19955;-63
2022/09/15 13:00:50;;;;;;;;;;;16.60;99.90;;;;;;5094831;28;20006;-63
2022/09/15 13:03:36;;;;;;;;;;;16.70;99.90;;;;;;5093343;28;20003;-63
2022/09/15 13:06:21;;;;;;;;;;;16.70;99.90;;;;;;5082932;28;19915;-62
2022/09/15 13:11:41;;;;;;;;;;;16.80;99.90;;;;;;5090097;27;20288;-64
2022/09/15 13:14:10;;;;;;;;;;;16.90;99.90;;;;;;5090810;28;19959;-64
2022/09/15 13:16:47;;;;;;;;;;;17.00;99.90;;;;;;5089551;28;19955;-64
2022/09/15 13:19:15;;;;;;;;;;;16.90;99.90;;;;;;5080486;28;20453;-63
2022/09/15 13:21:42;;;;;;;;;;;16.90;99.90;;;;;;5087320;28;19966;-64
2022/09/15 13:24:22;;;;;;;;;;;17.00;99.90;;;;;;5071961;28;19921;-65
2022/09/15 13:26:50;;;;;;;;;;;17.10;99.90;;;;;;5088514;28;20374;-64
2022/09/15 13:29:16;;;;;;;;;;;17.10;99.90;;;;;;5090416;28;19916;-63
2022/09/15 13:31:49;;;;;;;;;;;17.20;99.90;;;;;;5089830;28;20366;-63
2022/09/15 13:34:25;;;;;;;;;;;17.20;99.90;;;;;;5089000;28;20011;-64
2022/09/15 13:37:02;;;;;;;;;;;17.60;99.90;;;;;;5088877;28;19923;-64
2022/09/15 13:39:47;;;;;;;;;;;18.00;99.90;;;;;;5089617;28;19916;-64
2022/09/15 13:42:33;;;;;;;;;;;17.90;99.90;;;;;;5090170;28;19913;-64
2022/09/15 13:45:20;;;;;;;;;;;17.80;99.90;;;;;;5089989;28;19913;-64
2022/09/15 13:47:57;;;;;;;;;;;17.80;99.90;;;;;;5088027;28;19913;-63
2022/09/15 13:50:24;;;;;;;;;;;17.80;99.90;;;;;;5089311;28;19916;-64
2022/09/15 13:53:10;;;;;;;;;;;17.90;99.90;;;;;;5090295;28;20290;-64
2022/09/15 13:55:37;;;;;;;;;;;18.00;99.90;;;;;;5089370;28;19919;-63
2022/09/15 13:58:03;;;;;;;;;;;18.00;99.90;;;;;;5083239;28;19913;-64
2022/09/15 14:00:43;;;;;;;;;;;18.00;99.90;;;;;;5082480;28;19919;-65
2022/09/15 14:03:12;;;;;;;;;;;17.70;99.90;;;;;;5088105;28;20375;-64
2022/09/15 14:05:37;;;;;;;;;;;17.70;99.90;;;;;;5072827;28;20013;-64
2022/09/15 14:08:06;;;;;;;;;;;17.80;99.90;;;;;;5088800;28;19912;-64
2022/09/15 14:10:37;;;;;;;;;;;17.80;99.90;;;;;;5099374;28;19960;-63
2022/09/15 14:13:02;;;;;;;;;;;17.80;99.90;;;;;;5107644;28;19919;-63
2022/09/15 14:15:40;;;;;;;;;;;17.80;99.90;;;;;;5103901;28;19912;-64
2022/09/15 14:18:17;;;;;;;;;;;17.70;99.90;;;;;;5100587;28;19918;-64
2022/09/15 14:20:42;;;;;;;;;;;17.70;99.90;;;;;;5100829;28;19951;-64
2022/09/15 14:23:14;;;;;;;;;;;17.80;99.90;;;;;;5087072;28;19919;-64
2022/09/15 14:25:44;;;;;;;;;;;17.80;99.90;;;;;;5091681;28;20362;-64
2022/09/15 14:28:16;;;;;;;;;;;18.00;99.90;;;;;;5086612;28;20017;-64
2022/09/15 14:30:46;;;;;;;;;;;18.20;99.90;;;;;;5086596;28;20379;-65
2022/09/15 14:33:12;;;;;;;;;;;18.30;99.90;;;;;;5095494;28;19957;-64
2022/09/15 14:35:38;;;;;;;;;;;18.50;99.90;;;;;;5095670;28;19915;-64
2022/09/15 14:38:03;;;;;;;;;;;18.50;99.90;;;;;;5096007;28;20018;-64